sensor_id;sensor_type;location;lat;lon;timestamp;P1;durP1;ratioP1;P2;durP2;ratioP2
25213;SDS011;13160;51.834;4.706;2023-06-26T00:00:08;7.05;;;6.18;;
25213;SDS011;13160;51.834;4.706;2023-06-26T00:02:39;8.50;;;5.72;;
25213;SDS011;13160;51.834;4.706;2023-06-26T00:05:08;7.85;;;6.22;;
25213;SDS011;13160;51.834;4.706;2023-06-26T00:07:36;7.80;;;6.38;;
25213;SDS011;13160;51.834;4.706;2023-06-26T00:10:05;8.77;;;6.22;;
25213;SDS011;13160;51.834;4.706;2023-06-26T00:12:34;9.95;;;6.32;;
25213;SDS011;13160;51.834;4.706;2023-06-26T00:15:03;9.57;;;6.30;;
25213;SDS011;13160;51.834;4.706;2023-06-26T00:17:34;9.68;;;5.93;;
25213;SDS011;13160;51.834;4.706;2023-06-26T00:20:05;10.38;;;5.93;;
25213;SDS011;13160;51.834;4.706;2023-06-26T00:22:35;7.90;;;5.90;;
25213;SDS011;13160;51.834;4.706;2023-06-26T00:25:07;9.52;;;5.15;;
25213;SDS011;13160;51.834;4.706;2023-06-26T00:27:35;10.38;;;5.45;;
25213;SDS011;13160;51.834;4.706;2023-06-26T00:30:04;11.07;;;6.07;;
25213;SDS011;13160;51.834;4.706;2023-06-26T00:32:33;10.07;;;5.68;;
25213;SDS011;13160;51.834;4.706;2023-06-26T00:35:04;9.75;;;5.50;;
25213;SDS011;13160;51.834;4.706;2023-06-26T00:37:33;10.35;;;5.53;;
25213;SDS011;13160;51.834;4.706;2023-06-26T00:40:02;10.63;;;5.75;;
25213;SDS011;13160;51.834;4.706;2023-06-26T00:42:32;12.05;;;5.65;;
25213;SDS011;13160;51.834;4.706;2023-06-26T00:45:00;11.20;;;6.00;;
25213;SDS011;13160;51.834;4.706;2023-06-26T00:47:29;9.38;;;5.40;;
25213;SDS011;13160;51.834;4.706;2023-06-26T00:49:58;11.25;;;5.57;;
25213;SDS011;13160;51.834;4.706;2023-06-26T00:52:28;8.68;;;5.18;;
25213;SDS011;13160;51.834;4.706;2023-06-26T00:54:56;12.02;;;5.25;;
25213;SDS011;13160;51.834;4.706;2023-06-26T00:57:25;13.15;;;5.20;;
25213;SDS011;13160;51.834;4.706;2023-06-26T00:59:54;9.35;;;5.30;;
25213;SDS011;13160;51.834;4.706;2023-06-26T01:02:23;13.27;;;5.68;;
25213;SDS011;13160;51.834;4.706;2023-06-26T01:04:53;9.95;;;5.30;;
25213;SDS011;13160;51.834;4.706;2023-06-26T01:07:22;9.80;;;5.15;;
25213;SDS011;13160;51.834;4.706;2023-06-26T01:09:52;11.88;;;5.38;;
25213;SDS011;13160;51.834;4.706;2023-06-26T01:12:21;10.85;;;4.93;;
25213;SDS011;13160;51.834;4.706;2023-06-26T01:14:49;13.57;;;5.72;;
25213;SDS011;13160;51.834;4.706;2023-06-26T01:17:18;14.60;;;6.25;;
25213;SDS011;13160;51.834;4.706;2023-06-26T01:19:47;13.02;;;5.57;;
25213;SDS011;13160;51.834;4.706;2023-06-26T01:22:19;14.85;;;6.45;;
25213;SDS011;13160;51.834;4.706;2023-06-26T01:25:04;18.17;;;6.70;;
25213;SDS011;13160;51.834;4.706;2023-06-26T01:27:47;15.85;;;6.68;;
25213;SDS011;13160;51.834;4.706;2023-06-26T01:30:18;17.55;;;6.72;;
25213;SDS011;13160;51.834;4.706;2023-06-26T01:32:48;16.55;;;6.70;;
25213;SDS011;13160;51.834;4.706;2023-06-26T01:35:17;15.70;;;7.32;;
25213;SDS011;13160;51.834;4.706;2023-06-26T01:37:46;16.13;;;6.68;;
25213;SDS011;13160;51.834;4.706;2023-06-26T01:40:15;16.92;;;7.03;;
25213;SDS011;13160;51.834;4.706;2023-06-26T01:42:43;17.67;;;7.70;;
25213;SDS011;13160;51.834;4.706;2023-06-26T01:45:14;21.33;;;7.53;;
25213;SDS011;13160;51.834;4.706;2023-06-26T01:47:52;19.00;;;7.88;;
25213;SDS011;13160;51.834;4.706;2023-06-26T01:50:23;21.92;;;7.53;;
25213;SDS011;13160;51.834;4.706;2023-06-26T01:52:57;15.15;;;7.13;;
25213;SDS011;13160;51.834;4.706;2023-06-26T01:55:32;20.27;;;7.70;;
25213;SDS011;13160;51.834;4.706;2023-06-26T01:58:06;19.77;;;7.80;;
25213;SDS011;13160;51.834;4.706;2023-06-26T02:00:36;19.48;;;7.53;;
25213;SDS011;13160;51.834;4.706;2023-06-26T02:03:05;21.20;;;7.72;;
25213;SDS011;13160;51.834;4.706;2023-06-26T02:05:34;19.23;;;7.15;;
25213;SDS011;13160;51.834;4.706;2023-06-26T02:08:02;22.85;;;8.40;;
25213;SDS011;13160;51.834;4.706;2023-06-26T02:10:31;21.60;;;7.93;;
25213;SDS011;13160;51.834;4.706;2023-06-26T02:13:00;22.63;;;8.13;;
25213;SDS011;13160;51.834;4.706;2023-06-26T02:15:28;21.55;;;7.80;;
25213;SDS011;13160;51.834;4.706;2023-06-26T02:17:58;24.90;;;8.90;;
25213;SDS011;13160;51.834;4.706;2023-06-26T02:20:26;25.77;;;7.60;;
25213;SDS011;13160;51.834;4.706;2023-06-26T02:22:55;27.27;;;8.02;;
25213;SDS011;13160;51.834;4.706;2023-06-26T02:25:23;25.70;;;8.07;;
25213;SDS011;13160;51.834;4.706;2023-06-26T02:27:52;24.90;;;7.95;;
25213;SDS011;13160;51.834;4.706;2023-06-26T02:30:21;22.77;;;7.85;;
25213;SDS011;13160;51.834;4.706;2023-06-26T02:32:49;21.88;;;7.82;;
25213;SDS011;13160;51.834;4.706;2023-06-26T02:35:19;21.50;;;8.07;;
25213;SDS011;13160;51.834;4.706;2023-06-26T02:37:48;23.52;;;8.52;;
25213;SDS011;13160;51.834;4.706;2023-06-26T02:40:16;22.10;;;8.20;;
25213;SDS011;13160;51.834;4.706;2023-06-26T02:42:45;21.73;;;7.72;;
25213;SDS011;13160;51.834;4.706;2023-06-26T02:45:13;22.95;;;8.23;;
25213;SDS011;13160;51.834;4.706;2023-06-26T02:47:41;20.83;;;7.53;;
25213;SDS011;13160;51.834;4.706;2023-06-26T02:50:10;19.52;;;7.55;;
25213;SDS011;13160;51.834;4.706;2023-06-26T02:52:39;24.52;;;7.28;;
25213;SDS011;13160;51.834;4.706;2023-06-26T02:55:08;18.63;;;7.50;;
25213;SDS011;13160;51.834;4.706;2023-06-26T02:57:36;19.70;;;7.93;;
25213;SDS011;13160;51.834;4.706;2023-06-26T03:00:04;26.83;;;8.15;;
25213;SDS011;13160;51.834;4.706;2023-06-26T03:02:34;19.27;;;7.57;;
25213;SDS011;13160;51.834;4.706;2023-06-26T03:05:03;18.38;;;6.82;;
25213;SDS011;13160;51.834;4.706;2023-06-26T03:07:32;24.98;;;8.10;;
25213;SDS011;13160;51.834;4.706;2023-06-26T03:10:02;20.05;;;7.03;;
25213;SDS011;13160;51.834;4.706;2023-06-26T03:12:32;20.58;;;6.90;;
25213;SDS011;13160;51.834;4.706;2023-06-26T03:15:00;17.90;;;6.97;;
25213;SDS011;13160;51.834;4.706;2023-06-26T03:17:29;16.85;;;6.70;;
25213;SDS011;13160;51.834;4.706;2023-06-26T03:19:57;16.88;;;6.30;;
25213;SDS011;13160;51.834;4.706;2023-06-26T03:22:25;15.52;;;5.95;;
25213;SDS011;13160;51.834;4.706;2023-06-26T03:24:54;16.15;;;6.00;;
25213;SDS011;13160;51.834;4.706;2023-06-26T03:27:24;16.73;;;5.72;;
25213;SDS011;13160;51.834;4.706;2023-06-26T03:29:52;16.25;;;6.32;;
25213;SDS011;13160;51.834;4.706;2023-06-26T03:32:20;16.30;;;5.28;;
25213;SDS011;13160;51.834;4.706;2023-06-26T03:34:49;18.77;;;5.82;;
25213;SDS011;13160;51.834;4.706;2023-06-26T03:37:19;14.90;;;5.28;;
25213;SDS011;13160;51.834;4.706;2023-06-26T03:39:47;13.80;;;5.55;;
25213;SDS011;13160;51.834;4.706;2023-06-26T03:42:16;13.75;;;5.70;;
25213;SDS011;13160;51.834;4.706;2023-06-26T03:44:45;15.43;;;5.30;;
25213;SDS011;13160;51.834;4.706;2023-06-26T03:47:14;18.85;;;5.43;;
25213;SDS011;13160;51.834;4.706;2023-06-26T03:49:42;16.60;;;5.50;;
25213;SDS011;13160;51.834;4.706;2023-06-26T03:52:10;15.32;;;5.60;;
25213;SDS011;13160;51.834;4.706;2023-06-26T03:54:39;17.33;;;5.03;;
25213;SDS011;13160;51.834;4.706;2023-06-26T03:57:08;17.48;;;5.60;;
25213;SDS011;13160;51.834;4.706;2023-06-26T03:59:36;18.42;;;5.65;;
25213;SDS011;13160;51.834;4.706;2023-06-26T04:02:06;16.00;;;6.18;;
25213;SDS011;13160;51.834;4.706;2023-06-26T04:04:34;16.00;;;5.60;;
25213;SDS011;13160;51.834;4.706;2023-06-26T04:07:03;17.58;;;5.20;;
25213;SDS011;13160;51.834;4.706;2023-06-26T04:09:32;15.98;;;5.47;;
25213;SDS011;13160;51.834;4.706;2023-06-26T04:12:00;18.45;;;5.65;;
25213;SDS011;13160;51.834;4.706;2023-06-26T04:14:30;11.70;;;4.93;;
25213;SDS011;13160;51.834;4.706;2023-06-26T04:16:58;15.52;;;5.55;;
25213;SDS011;13160;51.834;4.706;2023-06-26T04:19:29;15.07;;;5.40;;
25213;SDS011;13160;51.834;4.706;2023-06-26T04:22:00;13.82;;;5.07;;
25213;SDS011;13160;51.834;4.706;2023-06-26T04:24:28;14.95;;;5.22;;
25213;SDS011;13160;51.834;4.706;2023-06-26T04:26:57;13.63;;;4.95;;
25213;SDS011;13160;51.834;4.706;2023-06-26T04:29:25;14.50;;;4.95;;
25213;SDS011;13160;51.834;4.706;2023-06-26T04:31:54;16.15;;;5.82;;
25213;SDS011;13160;51.834;4.706;2023-06-26T04:34:24;20.05;;;6.38;;
25213;SDS011;13160;51.834;4.706;2023-06-26T04:36:54;16.42;;;5.18;;
25213;SDS011;13160;51.834;4.706;2023-06-26T04:39:23;17.38;;;5.50;;
25213;SDS011;13160;51.834;4.706;2023-06-26T04:41:51;19.92;;;6.18;;
25213;SDS011;13160;51.834;4.706;2023-06-26T04:44:20;16.85;;;5.30;;
25213;SDS011;13160;51.834;4.706;2023-06-26T04:46:48;17.35;;;5.25;;
25213;SDS011;13160;51.834;4.706;2023-06-26T04:49:18;18.25;;;5.55;;
25213;SDS011;13160;51.834;4.706;2023-06-26T04:51:46;17.58;;;5.45;;
25213;SDS011;13160;51.834;4.706;2023-06-26T04:54:18;15.88;;;5.95;;
25213;SDS011;13160;51.834;4.706;2023-06-26T04:56:47;16.33;;;5.60;;
25213;SDS011;13160;51.834;4.706;2023-06-26T04:59:15;20.50;;;5.32;;
25213;SDS011;13160;51.834;4.706;2023-06-26T05:01:43;14.35;;;5.38;;
25213;SDS011;13160;51.834;4.706;2023-06-26T05:04:15;19.58;;;5.50;;
25213;SDS011;13160;51.834;4.706;2023-06-26T05:06:44;15.02;;;5.30;;
25213;SDS011;13160;51.834;4.706;2023-06-26T05:09:12;14.68;;;5.53;;
25213;SDS011;13160;51.834;4.706;2023-06-26T05:11:42;15.02;;;5.15;;
25213;SDS011;13160;51.834;4.706;2023-06-26T05:14:10;19.13;;;5.75;;
25213;SDS011;13160;51.834;4.706;2023-06-26T05:16:40;15.80;;;5.28;;
25213;SDS011;13160;51.834;4.706;2023-06-26T05:19:08;11.57;;;4.82;;
25213;SDS011;13160;51.834;4.706;2023-06-26T05:21:36;13.48;;;4.57;;
25213;SDS011;13160;51.834;4.706;2023-06-26T05:24:06;9.27;;;3.45;;
25213;SDS011;13160;51.834;4.706;2023-06-26T05:26:36;9.27;;;3.67;;
25213;SDS011;13160;51.834;4.706;2023-06-26T05:29:07;7.70;;;3.50;;
25213;SDS011;13160;51.834;4.706;2023-06-26T05:31:37;12.38;;;3.63;;
25213;SDS011;13160;51.834;4.706;2023-06-26T05:34:09;6.53;;;3.63;;
25213;SDS011;13160;51.834;4.706;2023-06-26T05:36:39;8.27;;;4.05;;
25213;SDS011;13160;51.834;4.706;2023-06-26T05:39:10;7.03;;;3.35;;
25213;SDS011;13160;51.834;4.706;2023-06-26T05:41:40;7.38;;;3.45;;
25213;SDS011;13160;51.834;4.706;2023-06-26T05:44:10;7.13;;;3.35;;
25213;SDS011;13160;51.834;4.706;2023-06-26T05:46:38;8.32;;;3.75;;
25213;SDS011;13160;51.834;4.706;2023-06-26T05:49:07;10.00;;;3.90;;
25213;SDS011;13160;51.834;4.706;2023-06-26T05:51:37;9.40;;;3.70;;
25213;SDS011;13160;51.834;4.706;2023-06-26T05:54:06;30.17;;;4.25;;
25213;SDS011;13160;51.834;4.706;2023-06-26T05:56:35;11.45;;;3.45;;
25213;SDS011;13160;51.834;4.706;2023-06-26T05:59:04;11.90;;;2.90;;
25213;SDS011;13160;51.834;4.706;2023-06-26T06:01:36;10.85;;;3.10;;
25213;SDS011;13160;51.834;4.706;2023-06-26T06:04:04;9.65;;;2.95;;
25213;SDS011;13160;51.834;4.706;2023-06-26T06:06:32;12.52;;;2.92;;
25213;SDS011;13160;51.834;4.706;2023-06-26T06:09:01;10.80;;;2.92;;
25213;SDS011;13160;51.834;4.706;2023-06-26T06:11:29;8.05;;;2.13;;
25213;SDS011;13160;51.834;4.706;2023-06-26T06:13:57;12.60;;;3.08;;
25213;SDS011;13160;51.834;4.706;2023-06-26T06:16:26;12.95;;;3.58;;
25213;SDS011;13160;51.834;4.706;2023-06-26T06:18:57;8.88;;;2.25;;
25213;SDS011;13160;51.834;4.706;2023-06-26T06:21:25;6.95;;;2.53;;
25213;SDS011;13160;51.834;4.706;2023-06-26T06:23:53;8.68;;;2.67;;
25213;SDS011;13160;51.834;4.706;2023-06-26T06:26:22;10.20;;;2.30;;
25213;SDS011;13160;51.834;4.706;2023-06-26T06:28:51;9.43;;;2.25;;
25213;SDS011;13160;51.834;4.706;2023-06-26T06:31:20;5.55;;;1.95;;
25213;SDS011;13160;51.834;4.706;2023-06-26T06:33:48;5.03;;;1.80;;
25213;SDS011;13160;51.834;4.706;2023-06-26T06:36:18;7.05;;;1.75;;
25213;SDS011;13160;51.834;4.706;2023-06-26T06:38:46;9.55;;;2.42;;
25213;SDS011;13160;51.834;4.706;2023-06-26T06:41:15;13.82;;;2.30;;
25213;SDS011;13160;51.834;4.706;2023-06-26T06:43:43;5.60;;;2.10;;
25213;SDS011;13160;51.834;4.706;2023-06-26T06:46:11;8.00;;;2.08;;
25213;SDS011;13160;51.834;4.706;2023-06-26T06:48:40;8.63;;;2.20;;
25213;SDS011;13160;51.834;4.706;2023-06-26T06:51:08;8.80;;;2.00;;
25213;SDS011;13160;51.834;4.706;2023-06-26T06:53:38;8.60;;;2.17;;
25213;SDS011;13160;51.834;4.706;2023-06-26T06:56:06;7.03;;;2.10;;
25213;SDS011;13160;51.834;4.706;2023-06-26T06:58:34;9.18;;;2.10;;
25213;SDS011;13160;51.834;4.706;2023-06-26T07:01:03;9.75;;;2.22;;
25213;SDS011;13160;51.834;4.706;2023-06-26T07:03:31;7.65;;;2.38;;
25213;SDS011;13160;51.834;4.706;2023-06-26T07:06:00;6.90;;;2.08;;
25213;SDS011;13160;51.834;4.706;2023-06-26T07:08:29;11.30;;;2.38;;
25213;SDS011;13160;51.834;4.706;2023-06-26T07:10:59;6.15;;;2.22;;
25213;SDS011;13160;51.834;4.706;2023-06-26T07:13:27;6.85;;;2.10;;
25213;SDS011;13160;51.834;4.706;2023-06-26T07:15:56;9.68;;;2.28;;
25213;SDS011;13160;51.834;4.706;2023-06-26T07:18:24;7.47;;;2.55;;
25213;SDS011;13160;51.834;4.706;2023-06-26T07:20:52;8.95;;;2.63;;
25213;SDS011;13160;51.834;4.706;2023-06-26T07:23:21;6.20;;;1.73;;
25213;SDS011;13160;51.834;4.706;2023-06-26T07:25:49;6.53;;;2.08;;
25213;SDS011;13160;51.834;4.706;2023-06-26T07:28:19;10.57;;;2.33;;
25213;SDS011;13160;51.834;4.706;2023-06-26T07:30:47;6.88;;;1.95;;
25213;SDS011;13160;51.834;4.706;2023-06-26T07:33:16;6.93;;;2.10;;
25213;SDS011;13160;51.834;4.706;2023-06-26T07:35:44;8.98;;;2.03;;
25213;SDS011;13160;51.834;4.706;2023-06-26T07:38:13;10.43;;;2.28;;
25213;SDS011;13160;51.834;4.706;2023-06-26T07:40:41;8.35;;;1.90;;
25213;SDS011;13160;51.834;4.706;2023-06-26T07:43:09;10.02;;;2.20;;
25213;SDS011;13160;51.834;4.706;2023-06-26T07:45:39;8.90;;;2.20;;
25213;SDS011;13160;51.834;4.706;2023-06-26T07:48:08;11.85;;;2.30;;
25213;SDS011;13160;51.834;4.706;2023-06-26T07:50:36;17.13;;;2.30;;
25213;SDS011;13160;51.834;4.706;2023-06-26T07:53:05;10.32;;;2.22;;
25213;SDS011;13160;51.834;4.706;2023-06-26T07:55:33;4.25;;;1.63;;
25213;SDS011;13160;51.834;4.706;2023-06-26T07:58:02;7.97;;;1.88;;
25213;SDS011;13160;51.834;4.706;2023-06-26T08:00:30;7.28;;;2.10;;
25213;SDS011;13160;51.834;4.706;2023-06-26T08:03:00;6.78;;;1.98;;
25213;SDS011;13160;51.834;4.706;2023-06-26T08:05:29;9.88;;;2.33;;
25213;SDS011;13160;51.834;4.706;2023-06-26T08:07:58;7.20;;;1.92;;
25213;SDS011;13160;51.834;4.706;2023-06-26T08:10:28;7.20;;;2.38;;
25213;SDS011;13160;51.834;4.706;2023-06-26T08:12:57;8.50;;;2.28;;
25213;SDS011;13160;51.834;4.706;2023-06-26T08:15:25;8.35;;;2.50;;
25213;SDS011;13160;51.834;4.706;2023-06-26T08:17:54;7.38;;;1.90;;
25213;SDS011;13160;51.834;4.706;2023-06-26T08:20:24;5.65;;;1.98;;
25213;SDS011;13160;51.834;4.706;2023-06-26T08:22:52;7.82;;;1.98;;
25213;SDS011;13160;51.834;4.706;2023-06-26T08:25:21;6.68;;;1.90;;
25213;SDS011;13160;51.834;4.706;2023-06-26T08:27:49;9.98;;;2.35;;
25213;SDS011;13160;51.834;4.706;2023-06-26T08:30:19;9.40;;;1.67;;
25213;SDS011;13160;51.834;4.706;2023-06-26T08:32:47;8.02;;;2.10;;
25213;SDS011;13160;51.834;4.706;2023-06-26T08:35:17;4.78;;;1.67;;
25213;SDS011;13160;51.834;4.706;2023-06-26T08:37:47;9.63;;;2.00;;
25213;SDS011;13160;51.834;4.706;2023-06-26T08:40:16;8.48;;;2.42;;
25213;SDS011;13160;51.834;4.706;2023-06-26T08:42:46;6.35;;;2.30;;
25213;SDS011;13160;51.834;4.706;2023-06-26T08:45:19;6.65;;;1.45;;
25213;SDS011;13160;51.834;4.706;2023-06-26T08:47:48;7.47;;;2.03;;
25213;SDS011;13160;51.834;4.706;2023-06-26T08:50:21;6.97;;;2.28;;
25213;SDS011;13160;51.834;4.706;2023-06-26T08:52:53;7.13;;;1.90;;
25213;SDS011;13160;51.834;4.706;2023-06-26T08:55:33;7.95;;;2.10;;
25213;SDS011;13160;51.834;4.706;2023-06-26T08:58:06;7.32;;;2.00;;
25213;SDS011;13160;51.834;4.706;2023-06-26T09:00:34;7.15;;;1.92;;
25213;SDS011;13160;51.834;4.706;2023-06-26T09:03:03;5.57;;;1.88;;
25213;SDS011;13160;51.834;4.706;2023-06-26T09:05:33;9.20;;;2.00;;
25213;SDS011;13160;51.834;4.706;2023-06-26T09:08:04;8.68;;;2.13;;
25213;SDS011;13160;51.834;4.706;2023-06-26T09:10:32;7.95;;;1.88;;
25213;SDS011;13160;51.834;4.706;2023-06-26T09:13:02;7.85;;;1.98;;
25213;SDS011;13160;51.834;4.706;2023-06-26T09:15:43;7.13;;;2.10;;
25213;SDS011;13160;51.834;4.706;2023-06-26T09:18:16;6.88;;;1.98;;
25213;SDS011;13160;51.834;4.706;2023-06-26T09:20:46;6.47;;;1.85;;
25213;SDS011;13160;51.834;4.706;2023-06-26T09:23:16;39.05;;;4.95;;
25213;SDS011;13160;51.834;4.706;2023-06-26T09:25:46;7.78;;;1.80;;
25213;SDS011;13160;51.834;4.706;2023-06-26T09:28:15;7.85;;;2.67;;
25213;SDS011;13160;51.834;4.706;2023-06-26T09:30:44;6.72;;;1.58;;
25213;SDS011;13160;51.834;4.706;2023-06-26T09:33:13;7.85;;;2.00;;
25213;SDS011;13160;51.834;4.706;2023-06-26T09:35:43;10.75;;;2.33;;
25213;SDS011;13160;51.834;4.706;2023-06-26T09:38:12;9.50;;;2.25;;
25213;SDS011;13160;51.834;4.706;2023-06-26T09:40:42;5.93;;;1.80;;
25213;SDS011;13160;51.834;4.706;2023-06-26T09:43:12;9.10;;;2.08;;
25213;SDS011;13160;51.834;4.706;2023-06-26T09:45:41;7.07;;;2.05;;
25213;SDS011;13160;51.834;4.706;2023-06-26T09:48:10;11.77;;;2.33;;
25213;SDS011;13160;51.834;4.706;2023-06-26T09:50:41;19.98;;;3.20;;
25213;SDS011;13160;51.834;4.706;2023-06-26T09:53:30;17.70;;;2.60;;
25213;SDS011;13160;51.834;4.706;2023-06-26T09:55:59;12.60;;;2.13;;
25213;SDS011;13160;51.834;4.706;2023-06-26T09:58:34;12.73;;;2.20;;
25213;SDS011;13160;51.834;4.706;2023-06-26T10:01:05;87.03;;;11.65;;
25213;SDS011;13160;51.834;4.706;2023-06-26T10:03:36;18.08;;;3.20;;
25213;SDS011;13160;51.834;4.706;2023-06-26T10:06:04;11.10;;;3.03;;
25213;SDS011;13160;51.834;4.706;2023-06-26T10:08:35;5.55;;;1.90;;
25213;SDS011;13160;51.834;4.706;2023-06-26T10:11:07;10.35;;;2.53;;
25213;SDS011;13160;51.834;4.706;2023-06-26T10:13:39;6.55;;;1.92;;
25213;SDS011;13160;51.834;4.706;2023-06-26T10:16:12;40.03;;;6.03;;
25213;SDS011;13160;51.834;4.706;2023-06-26T10:18:52;28.23;;;4.55;;
25213;SDS011;13160;51.834;4.706;2023-06-26T10:21:25;38.38;;;4.40;;
25213;SDS011;13160;51.834;4.706;2023-06-26T10:23:56;9.95;;;2.10;;
25213;SDS011;13160;51.834;4.706;2023-06-26T10:26:26;11.00;;;2.20;;
25213;SDS011;13160;51.834;4.706;2023-06-26T10:28:56;6.35;;;1.88;;
25213;SDS011;13160;51.834;4.706;2023-06-26T10:31:26;16.33;;;2.78;;
25213;SDS011;13160;51.834;4.706;2023-06-26T10:33:57;5.50;;;2.15;;
25213;SDS011;13160;51.834;4.706;2023-06-26T10:36:29;9.45;;;2.17;;
25213;SDS011;13160;51.834;4.706;2023-06-26T10:39:02;6.90;;;1.88;;
25213;SDS011;13160;51.834;4.706;2023-06-26T10:41:37;6.07;;;1.98;;
25213;SDS011;13160;51.834;4.706;2023-06-26T10:44:26;6.50;;;2.10;;
25213;SDS011;13160;51.834;4.706;2023-06-26T10:46:55;9.05;;;2.10;;
25213;SDS011;13160;51.834;4.706;2023-06-26T10:49:25;6.82;;;1.77;;
25213;SDS011;13160;51.834;4.706;2023-06-26T10:51:55;8.48;;;1.73;;
25213;SDS011;13160;51.834;4.706;2023-06-26T10:54:29;7.50;;;2.15;;
25213;SDS011;13160;51.834;4.706;2023-06-26T10:57:01;4.80;;;1.70;;
25213;SDS011;13160;51.834;4.706;2023-06-26T10:59:34;4.30;;;1.70;;
25213;SDS011;13160;51.834;4.706;2023-06-26T11:02:08;5.32;;;1.70;;
25213;SDS011;13160;51.834;4.706;2023-06-26T11:04:38;5.03;;;1.67;;
25213;SDS011;13160;51.834;4.706;2023-06-26T11:07:17;4.57;;;1.80;;
25213;SDS011;13160;51.834;4.706;2023-06-26T11:09:57;8.93;;;2.20;;
25213;SDS011;13160;51.834;4.706;2023-06-26T11:15:15;5.40;;;1.70;;
25213;SDS011;13160;51.834;4.706;2023-06-26T11:17:46;9.00;;;1.67;;
25213;SDS011;13160;51.834;4.706;2023-06-26T11:20:16;5.82;;;1.40;;
25213;SDS011;13160;51.834;4.706;2023-06-26T11:22:46;7.47;;;1.88;;
25213;SDS011;13160;51.834;4.706;2023-06-26T11:25:19;22.45;;;2.78;;
25213;SDS011;13160;51.834;4.706;2023-06-26T11:27:49;6.80;;;1.33;;
25213;SDS011;13160;51.834;4.706;2023-06-26T11:30:24;7.65;;;1.70;;
25213;SDS011;13160;51.834;4.706;2023-06-26T11:33:02;13.35;;;2.00;;
25213;SDS011;13160;51.834;4.706;2023-06-26T11:35:31;5.00;;;1.77;;
25213;SDS011;13160;51.834;4.706;2023-06-26T11:38:01;7.13;;;1.58;;
25213;SDS011;13160;51.834;4.706;2023-06-26T11:40:32;4.57;;;1.38;;
25213;SDS011;13160;51.834;4.706;2023-06-26T11:43:04;6.95;;;1.55;;
25213;SDS011;13160;51.834;4.706;2023-06-26T11:45:33;21.20;;;2.13;;
25213;SDS011;13160;51.834;4.706;2023-06-26T11:48:02;4.45;;;1.33;;
25213;SDS011;13160;51.834;4.706;2023-06-26T11:50:31;36.75;;;3.97;;
25213;SDS011;13160;51.834;4.706;2023-06-26T11:52:59;6.45;;;2.00;;
25213;SDS011;13160;51.834;4.706;2023-06-26T11:55:40;95.35;;;7.82;;
25213;SDS011;13160;51.834;4.706;2023-06-26T11:58:10;29.60;;;3.67;;
25213;SDS011;13160;51.834;4.706;2023-06-26T12:00:40;6.22;;;1.40;;
25213;SDS011;13160;51.834;4.706;2023-06-26T12:03:10;7.93;;;1.50;;
25213;SDS011;13160;51.834;4.706;2023-06-26T12:05:38;4.60;;;1.40;;
25213;SDS011;13160;51.834;4.706;2023-06-26T12:08:07;4.63;;;1.50;;
25213;SDS011;13160;51.834;4.706;2023-06-26T12:10:36;6.32;;;1.60;;
25213;SDS011;13160;51.834;4.706;2023-06-26T12:13:05;5.95;;;1.60;;
25213;SDS011;13160;51.834;4.706;2023-06-26T12:15:36;6.03;;;1.88;;
25213;SDS011;13160;51.834;4.706;2023-06-26T12:18:07;6.57;;;1.35;;
25213;SDS011;13160;51.834;4.706;2023-06-26T12:20:39;21.63;;;2.60;;
25213;SDS011;13160;51.834;4.706;2023-06-26T12:23:11;20.02;;;2.65;;
25213;SDS011;13160;51.834;4.706;2023-06-26T12:25:40;5.78;;;1.35;;
25213;SDS011;13160;51.834;4.706;2023-06-26T12:28:16;42.38;;;4.30;;
25213;SDS011;13160;51.834;4.706;2023-06-26T12:31:09;9.32;;;1.65;;
25213;SDS011;13160;51.834;4.706;2023-06-26T12:33:40;77.40;;;7.53;;
25213;SDS011;13160;51.834;4.706;2023-06-26T12:36:10;17.42;;;2.70;;
25213;SDS011;13160;51.834;4.706;2023-06-26T12:38:40;5.75;;;1.48;;
25213;SDS011;13160;51.834;4.706;2023-06-26T12:41:11;6.63;;;1.67;;
25213;SDS011;13160;51.834;4.706;2023-06-26T12:43:41;3.42;;;1.40;;
25213;SDS011;13160;51.834;4.706;2023-06-26T12:46:11;5.00;;;1.50;;
25213;SDS011;13160;51.834;4.706;2023-06-26T12:48:40;6.18;;;1.40;;
25213;SDS011;13160;51.834;4.706;2023-06-26T12:51:12;5.53;;;1.55;;
25213;SDS011;13160;51.834;4.706;2023-06-26T12:53:43;7.78;;;1.50;;
25213;SDS011;13160;51.834;4.706;2023-06-26T12:56:11;5.88;;;1.70;;
25213;SDS011;13160;51.834;4.706;2023-06-26T12:58:40;5.97;;;1.40;;
25213;SDS011;13160;51.834;4.706;2023-06-26T13:01:08;13.45;;;2.65;;
25213;SDS011;13160;51.834;4.706;2023-06-26T13:03:41;6.00;;;1.58;;
25213;SDS011;13160;51.834;4.706;2023-06-26T13:06:10;15.32;;;4.78;;
25213;SDS011;13160;51.834;4.706;2023-06-26T13:08:41;55.92;;;9.55;;
25213;SDS011;13160;51.834;4.706;2023-06-26T13:11:09;11.52;;;1.85;;
25213;SDS011;13160;51.834;4.706;2023-06-26T13:13:38;7.03;;;1.50;;
25213;SDS011;13160;51.834;4.706;2023-06-26T13:16:07;3.88;;;1.50;;
25213;SDS011;13160;51.834;4.706;2023-06-26T13:18:39;7.95;;;1.70;;
25213;SDS011;13160;51.834;4.706;2023-06-26T13:21:07;6.00;;;1.35;;
25213;SDS011;13160;51.834;4.706;2023-06-26T13:23:35;5.25;;;1.50;;
25213;SDS011;13160;51.834;4.706;2023-06-26T13:26:04;7.68;;;1.98;;
25213;SDS011;13160;51.834;4.706;2023-06-26T13:28:33;7.28;;;1.58;;
25213;SDS011;13160;51.834;4.706;2023-06-26T13:31:01;46.55;;;4.57;;
25213;SDS011;13160;51.834;4.706;2023-06-26T13:33:30;4.63;;;1.60;;
25213;SDS011;13160;51.834;4.706;2023-06-26T13:36:01;4.90;;;1.40;;
25213;SDS011;13160;51.834;4.706;2023-06-26T13:38:32;7.20;;;1.38;;
25213;SDS011;13160;51.834;4.706;2023-06-26T13:41:03;4.90;;;1.50;;
25213;SDS011;13160;51.834;4.706;2023-06-26T13:43:32;35.78;;;3.28;;
25213;SDS011;13160;51.834;4.706;2023-06-26T13:46:01;8.23;;;1.88;;
25213;SDS011;13160;51.834;4.706;2023-06-26T13:48:31;4.10;;;1.23;;
25213;SDS011;13160;51.834;4.706;2023-06-26T13:51:01;6.30;;;1.75;;
25213;SDS011;13160;51.834;4.706;2023-06-26T13:53:30;4.80;;;1.40;;
25213;SDS011;13160;51.834;4.706;2023-06-26T13:56:00;4.15;;;1.48;;
25213;SDS011;13160;51.834;4.706;2023-06-26T13:58:28;5.97;;;1.50;;
25213;SDS011;13160;51.834;4.706;2023-06-26T14:00:58;4.85;;;1.33;;
25213;SDS011;13160;51.834;4.706;2023-06-26T14:03:27;5.38;;;1.52;;
25213;SDS011;13160;51.834;4.706;2023-06-26T14:05:55;9.07;;;1.95;;
25213;SDS011;13160;51.834;4.706;2023-06-26T14:08:25;76.22;;;6.13;;
25213;SDS011;13160;51.834;4.706;2023-06-26T14:10:53;5.78;;;1.52;;
25213;SDS011;13160;51.834;4.706;2023-06-26T14:13:22;3.38;;;1.30;;
25213;SDS011;13160;51.834;4.706;2023-06-26T14:15:50;8.65;;;1.60;;
25213;SDS011;13160;51.834;4.706;2023-06-26T14:18:20;5.10;;;1.55;;
25213;SDS011;13160;51.834;4.706;2023-06-26T14:20:50;6.60;;;1.60;;
25213;SDS011;13160;51.834;4.706;2023-06-26T14:23:20;4.18;;;1.40;;
25213;SDS011;13160;51.834;4.706;2023-06-26T14:25:49;6.28;;;1.50;;
25213;SDS011;13160;51.834;4.706;2023-06-26T14:28:18;3.90;;;1.20;;
25213;SDS011;13160;51.834;4.706;2023-06-26T14:30:46;4.90;;;1.20;;
25213;SDS011;13160;51.834;4.706;2023-06-26T14:33:15;4.35;;;1.40;;
25213;SDS011;13160;51.834;4.706;2023-06-26T14:35:44;4.40;;;1.70;;
25213;SDS011;13160;51.834;4.706;2023-06-26T14:38:12;4.78;;;1.30;;
25213;SDS011;13160;51.834;4.706;2023-06-26T14:40:40;4.00;;;1.38;;
25213;SDS011;13160;51.834;4.706;2023-06-26T14:43:11;5.97;;;1.83;;
25213;SDS011;13160;51.834;4.706;2023-06-26T14:45:40;7.28;;;1.63;;
25213;SDS011;13160;51.834;4.706;2023-06-26T14:48:09;6.30;;;1.58;;
25213;SDS011;13160;51.834;4.706;2023-06-26T14:50:38;3.75;;;1.50;;
25213;SDS011;13160;51.834;4.706;2023-06-26T14:53:07;8.55;;;2.17;;
25213;SDS011;13160;51.834;4.706;2023-06-26T14:55:36;5.13;;;1.90;;
25213;SDS011;13160;51.834;4.706;2023-06-26T14:58:04;7.15;;;1.80;;